Hauptseite
METAR-TAF:

METAR-TAF

Flughäfen :

Wick Airport

Wick, Schottland

Breite: 58-27N, Länge: 003-05W, Höhe: 39 m

Beobachtung

Neuester Wetterbericht von vor 22 Minuten, um 15:20 UTC
Wind 5 kt aus West
Temperatur 5°C
Luftfeuchtigkeit 70%
Luftdruck 987 hPa
Sichtweite 10 km oder mehr
Leicht bewölkt in der Höhe von 800 ft
Aufgelockert bewölkt in der Höhe von 3200 ft

METAR: EGPC 251520Z 26005KT 9999 FEW008 SCT032 05/00 Q0987

Zeit: 15:42 (15:42 UTC)

Prognose

Neuester Wetterbericht von vor 1 Stunde und 43 Minuten, um 13:59 UTC
Gültige Prognose vom 25 um 15 UTC bis 25 um 24 UTC
Wind 8 kt aus West
Sichtweite 10 km oder mehr
Aufgelockert bewölkt in der Höhe von 2200 ft

TAF: EGPC 251359Z 2515/2524 26008KT 9999 SCT022

Wetterbeobachtungen und Prognosen von mehr als 4000 Flughäfen (METAR und TAF Bericht).

Die verfügbaren Stationen werden durch gelbe und rote Markierungen auf der Karte dargestellt.

Führen Sie die Maus auf sie, um den Namen der Station zu sehen.

Darauf klicken, um die Beobachtung von Wetterbeobachtungen und Prognosen zu sehen.

Um die Karte zu ändern : klicken Sie auf den grünen Tasten mit einem schwarzen Kreuz Zum Vergrößern, auf den grünen Button mit einem Gedankenstrich zu verkleinern, oder auf die grünen Pfeile für benachbarte Karten.


METAR-TAF: